createdAt,value
2023-11-28T00:02:08.090Z,57.40
2023-11-28T00:04:35.177Z,57.30
2023-11-28T00:07:02.133Z,57.20
2023-11-28T00:09:28.891Z,57.20
2023-11-28T00:11:55.705Z,57.20
2023-11-28T00:14:22.690Z,57.20
2023-11-28T00:16:50.965Z,57.20
2023-11-28T00:19:17.921Z,57.20
2023-11-28T00:21:47.403Z,57.20
2023-11-28T00:24:15.801Z,57.20
2023-11-28T00:26:42.534Z,57.20
2023-11-28T00:29:09.349Z,57.20
2023-11-28T00:31:36.516Z,57.40
2023-11-28T00:34:04.673Z,57.10
2023-11-28T00:36:31.561Z,57.20
2023-11-28T00:38:58.548Z,57.20
2023-11-28T00:41:25.365Z,57.20
2023-11-28T00:43:52.277Z,57.10
2023-11-28T00:46:19.154Z,57.00
2023-11-28T00:48:46.082Z,57.00
2023-11-28T00:51:14.250Z,57.00
2023-11-28T00:53:41.094Z,57.10
2023-11-28T00:56:09.385Z,57.00
2023-11-28T00:58:36.256Z,57.00
2023-11-28T01:01:03.125Z,57.20
2023-11-28T01:03:29.980Z,57.10
2023-11-28T01:05:56.786Z,57.10
2023-11-28T01:08:24.998Z,57.10
2023-11-28T01:10:52.047Z,57.00
2023-11-28T01:13:18.904Z,57.20
2023-11-28T01:15:45.877Z,56.90
2023-11-28T01:18:12.725Z,57.00
2023-11-28T01:20:41.504Z,57.00
2023-11-28T01:23:08.381Z,56.90
2023-11-28T01:25:36.647Z,56.90
2023-11-28T01:28:03.651Z,56.90
2023-11-28T01:30:30.457Z,56.90
2023-11-28T01:32:57.275Z,57.00
2023-11-28T01:35:24.079Z,56.90
2023-11-28T01:37:50.963Z,56.90
2023-11-28T01:40:18.012Z,57.00
2023-11-28T01:42:48.043Z,56.90
2023-11-28T01:45:15.067Z,56.90
2023-11-28T01:47:42.447Z,57.00
2023-11-28T01:50:10.529Z,56.90
2023-11-28T01:52:37.396Z,56.80
2023-11-28T01:55:05.883Z,56.90
2023-11-28T01:57:33.524Z,56.80
2023-11-28T02:00:02.523Z,57.00
2023-11-28T02:02:31.293Z,56.90
2023-11-28T02:04:58.319Z,56.80
2023-11-28T02:07:25.224Z,56.80
2023-11-28T02:09:54.307Z,56.90
2023-11-28T02:12:21.740Z,57.00
2023-11-28T02:14:48.537Z,56.90
2023-11-28T02:17:16.751Z,56.90
2023-11-28T02:19:43.612Z,57.00
2023-11-28T02:22:10.696Z,56.90
2023-11-28T02:24:42.060Z,57.00
2023-11-28T02:27:10.335Z,56.90
2023-11-28T02:29:37.079Z,56.90
2023-11-28T02:32:04.068Z,56.90
2023-11-28T02:34:30.964Z,56.80
2023-11-28T02:36:57.912Z,56.90
2023-11-28T02:39:24.666Z,56.80
2023-11-28T02:41:51.654Z,56.80
2023-11-28T02:44:19.806Z,56.80
2023-11-28T02:46:46.726Z,56.80
2023-11-28T02:49:13.528Z,56.70
2023-11-28T02:51:40.282Z,56.60
2023-11-28T02:54:07.055Z,56.70
2023-11-28T02:56:33.828Z,56.60
2023-11-28T02:59:00.712Z,56.70
2023-11-28T03:01:29.064Z,56.70
2023-11-28T03:03:55.974Z,56.70
2023-11-28T03:06:22.788Z,56.70
2023-11-28T03:08:49.600Z,56.60
2023-11-28T03:11:16.389Z,56.60
2023-11-28T03:13:43.311Z,56.60
2023-11-28T03:16:11.142Z,56.60
2023-11-28T03:18:39.256Z,56.60
2023-11-28T03:21:06.902Z,56.70
2023-11-28T03:23:33.658Z,56.70
2023-11-28T03:26:00.573Z,56.70
2023-11-28T03:28:27.333Z,56.60
2023-11-28T03:30:54.154Z,56.70
2023-11-28T03:33:20.969Z,56.70
2023-11-28T03:35:49.158Z,56.60
2023-11-28T03:38:15.950Z,56.60
2023-11-28T03:40:42.906Z,56.60
2023-11-28T03:43:09.717Z,56.70
2023-11-28T03:45:36.549Z,56.60
2023-11-28T03:48:03.796Z,56.70
2023-11-28T03:50:30.616Z,56.70
2023-11-28T03:52:58.819Z,56.70
2023-11-28T03:55:25.896Z,56.60
2023-11-28T03:57:52.673Z,56.60
2023-11-28T04:00:19.656Z,56.60
2023-11-28T04:02:46.539Z,56.60
2023-11-28T04:05:13.563Z,56.60
2023-11-28T04:07:41.694Z,56.70
2023-11-28T04:10:10.428Z,56.70
2023-11-28T04:12:37.237Z,56.60
2023-11-28T04:15:04.572Z,56.70
2023-11-28T04:17:31.535Z,56.70
2023-11-28T04:19:58.441Z,56.70
2023-11-28T04:22:26.181Z,56.70
2023-11-28T04:24:56.685Z,56.60
2023-11-28T04:27:25.095Z,56.60
2023-11-28T04:29:52.050Z,56.60
2023-11-28T04:32:18.824Z,56.50
2023-11-28T04:34:45.644Z,56.40
2023-11-28T04:37:12.456Z,56.40
2023-11-28T04:39:39.231Z,56.30
2023-11-28T04:42:06.264Z,56.40
2023-11-28T04:44:34.449Z,56.40
2023-11-28T04:47:01.475Z,56.30
2023-11-28T04:49:28.330Z,56.40
2023-11-28T04:51:55.306Z,56.40
2023-11-28T04:54:22.268Z,56.30
2023-11-28T04:56:49.095Z,56.20
2023-11-28T04:59:16.044Z,56.30
2023-11-28T05:01:44.968Z,56.30
2023-11-28T05:04:11.916Z,56.30
2023-11-28T05:06:38.738Z,56.30
2023-11-28T05:09:05.555Z,56.30
2023-11-28T05:11:32.364Z,56.20
2023-11-28T05:13:59.367Z,56.20
2023-11-28T05:16:26.426Z,56.20
2023-11-28T05:18:54.841Z,56.20
2023-11-28T05:21:22.129Z,56.30
2023-11-28T05:23:48.931Z,56.30
2023-11-28T05:26:15.671Z,56.40
2023-11-28T05:28:42.460Z,56.20
2023-11-28T05:31:09.461Z,56.20
2023-11-28T05:33:36.228Z,56.40
2023-11-28T05:36:05.397Z,56.40
2023-11-28T05:38:32.148Z,56.40
2023-11-28T05:40:58.920Z,56.30
2023-11-28T05:43:25.853Z,56.30
2023-11-28T05:45:52.634Z,56.30
2023-11-28T05:48:19.457Z,56.40
2023-11-28T05:50:46.340Z,56.30
2023-11-28T05:53:14.531Z,56.40
2023-11-28T05:55:41.639Z,56.40
2023-11-28T05:58:08.493Z,56.40
2023-11-28T06:00:35.290Z,56.30
2023-11-28T06:03:02.345Z,56.20
2023-11-28T06:05:29.242Z,56.30
2023-11-28T06:07:56.106Z,56.30
2023-11-28T06:10:24.439Z,56.40
2023-11-28T06:12:51.265Z,56.30
2023-11-28T06:15:18.342Z,56.20
2023-11-28T06:17:46.610Z,56.10
2023-11-28T06:20:14.022Z,56.20
2023-11-28T06:22:40.929Z,56.20
2023-11-28T06:25:08.302Z,56.10
2023-11-28T06:27:36.717Z,56.10
2023-11-28T06:30:04.040Z,56.10
2023-11-28T06:32:30.814Z,56.00
2023-11-28T06:34:57.696Z,56.00
2023-11-28T06:37:24.698Z,56.00
2023-11-28T06:39:51.555Z,56.10
2023-11-28T06:42:18.811Z,56.20
2023-11-28T06:44:47.009Z,56.00
2023-11-28T06:47:13.904Z,56.10
2023-11-28T06:49:45.030Z,55.90
2023-11-28T06:52:11.878Z,56.00
2023-11-28T06:54:38.634Z,56.00
2023-11-28T06:57:05.783Z,55.90
2023-11-28T06:59:32.548Z,56.00
2023-11-28T07:02:00.888Z,56.20
2023-11-28T07:04:27.947Z,56.20
2023-11-28T07:06:54.736Z,56.20
2023-11-28T07:09:21.572Z,56.20
2023-11-28T07:11:51.789Z,56.20
2023-11-28T07:14:18.631Z,56.30
2023-11-28T07:16:45.553Z,56.20
2023-11-28T07:19:13.732Z,56.20
2023-11-28T07:21:40.671Z,56.20
2023-11-28T07:24:07.554Z,56.10
2023-11-28T07:26:34.541Z,56.30
2023-11-28T07:29:01.340Z,56.10
2023-11-28T07:31:30.351Z,55.90
2023-11-28T07:33:57.514Z,56.00
2023-11-28T07:36:25.672Z,55.90
2023-11-28T07:38:52.477Z,55.90
2023-11-28T07:41:19.447Z,56.00
2023-11-28T07:43:46.343Z,55.90
2023-11-28T07:46:13.287Z,55.90
2023-11-28T07:48:40.583Z,55.90
2023-11-28T07:51:08.729Z,55.90
2023-11-28T07:53:36.891Z,55.80
2023-11-28T07:56:04.278Z,55.80
2023-11-28T07:58:31.409Z,55.80
2023-11-28T08:00:58.285Z,55.90
2023-11-28T08:03:25.364Z,55.90
2023-11-28T08:05:52.247Z,55.80
2023-11-28T08:08:19.202Z,55.90
2023-11-28T08:10:47.674Z,55.80
2023-11-28T08:13:14.448Z,55.80
2023-11-28T08:15:41.278Z,55.70
2023-11-28T08:18:08.120Z,55.70
2023-11-28T08:20:35.114Z,55.80
2023-11-28T08:23:01.952Z,55.70
2023-11-28T08:25:28.747Z,55.50
2023-11-28T08:27:57.111Z,55.50
2023-11-28T08:30:23.927Z,55.60
2023-11-28T08:32:50.795Z,55.70
2023-11-28T08:35:17.746Z,55.70
2023-11-28T08:37:44.586Z,55.70
2023-11-28T08:40:12.857Z,55.70
2023-11-28T08:42:39.698Z,55.50
2023-11-28T08:45:09.171Z,55.70
2023-11-28T08:47:36.155Z,55.60
2023-11-28T08:50:03.332Z,55.50
2023-11-28T08:52:30.195Z,55.60
2023-11-28T08:54:57.097Z,55.80
2023-11-28T08:57:24.023Z,55.70
2023-11-28T08:59:50.828Z,55.60
2023-11-28T09:02:19.232Z,55.60
2023-11-28T09:04:46.221Z,55.60
2023-11-28T09:07:13.173Z,55.50
2023-11-28T09:09:40.106Z,55.50
2023-11-28T09:12:07.345Z,55.60
2023-11-28T09:14:44.419Z,55.40
2023-11-28T09:17:19.370Z,55.40
2023-11-28T09:19:46.279Z,55.50
2023-11-28T09:22:13.049Z,55.40
2023-11-28T09:24:42.513Z,55.40
2023-11-28T09:27:10.449Z,55.60
2023-11-28T09:29:37.467Z,55.60
2023-11-28T09:32:04.802Z,55.60
2023-11-28T09:34:33.248Z,55.40
2023-11-28T09:37:00.292Z,55.50
2023-11-28T09:39:27.169Z,55.60
2023-11-28T09:41:54.359Z,55.50
2023-11-28T09:44:22.723Z,55.50
2023-11-28T09:46:50.420Z,55.40
2023-11-28T09:49:19.492Z,55.50
2023-11-28T09:51:48.824Z,55.60
2023-11-28T09:54:16.380Z,55.50
2023-11-28T09:56:44.690Z,55.40
2023-11-28T09:59:13.352Z,55.50
2023-11-28T10:01:43.446Z,55.50
2023-11-28T10:04:10.430Z,55.50
2023-11-28T10:06:42.382Z,55.50
2023-11-28T10:09:11.714Z,55.40
2023-11-28T10:11:39.208Z,55.50
2023-11-28T10:14:06.142Z,55.50
2023-11-28T10:16:42.975Z,55.50
2023-11-28T10:19:10.019Z,55.40
2023-11-28T10:21:37.196Z,55.50
2023-11-28T10:24:04.305Z,55.50
2023-11-28T10:26:32.584Z,55.60
2023-11-28T10:28:59.528Z,55.70
2023-11-28T10:31:26.394Z,55.70
2023-11-28T10:33:53.377Z,55.70
2023-11-28T10:36:20.181Z,55.50
2023-11-28T10:38:47.722Z,55.50
2023-11-28T10:41:15.086Z,55.90
2023-11-28T10:43:45.132Z,55.70
2023-11-28T10:46:16.098Z,55.80
2023-11-28T10:48:43.173Z,55.50
2023-11-28T10:51:12.665Z,55.60
2023-11-28T10:53:41.968Z,55.60
2023-11-28T10:56:11.609Z,56.00
2023-11-28T10:58:41.644Z,56.20
2023-11-28T11:01:11.916Z,56.10
2023-11-28T11:03:39.501Z,56.10
2023-11-28T11:06:08.167Z,55.70
2023-11-28T11:08:36.053Z,55.70
2023-11-28T11:11:04.302Z,55.50
2023-11-28T11:13:38.942Z,55.70
2023-11-28T11:16:18.504Z,55.70
2023-11-28T11:18:48.837Z,55.80
2023-11-28T11:21:19.620Z,55.30
2023-11-28T11:23:48.781Z,55.60
2023-11-28T11:26:15.692Z,55.70
2023-11-28T11:28:42.741Z,55.70
2023-11-28T11:31:11.990Z,55.70
2023-11-28T11:33:38.898Z,55.70
2023-11-28T11:36:06.899Z,55.70
2023-11-28T11:38:33.700Z,55.60
2023-11-28T11:41:01.264Z,55.70
2023-11-28T11:43:28.583Z,55.90
2023-11-28T11:46:06.946Z,56.10
2023-11-28T11:48:35.925Z,56.00
2023-11-28T11:51:03.091Z,56.10
2023-11-28T11:53:30.164Z,55.60
2023-11-28T11:56:00.124Z,55.30
2023-11-28T11:58:27.477Z,55.90
2023-11-28T12:01:03.195Z,56.00
2023-11-28T12:03:30.362Z,55.60
2023-11-28T12:05:58.693Z,55.10
2023-11-28T12:08:26.237Z,55.30
2023-11-28T12:10:54.933Z,55.20
2023-11-28T12:13:24.968Z,55.00
2023-11-28T12:16:01.462Z,55.50
2023-11-28T12:18:29.041Z,55.80
2023-11-28T12:20:58.816Z,55.60
2023-11-28T12:23:27.614Z,55.40
2023-11-28T12:25:57.187Z,55.20
2023-11-28T12:28:24.120Z,55.30
2023-11-28T12:30:51.258Z,55.40
2023-11-28T12:33:18.206Z,55.40
2023-11-28T12:35:46.789Z,55.20
2023-11-28T12:38:13.962Z,55.20
2023-11-28T12:40:45.162Z,55.20
2023-11-28T12:43:20.427Z,54.90
2023-11-28T12:45:47.727Z,55.20
2023-11-28T12:48:16.423Z,55.10
2023-11-28T12:50:43.562Z,55.00
2023-11-28T12:53:18.141Z,54.70
2023-11-28T12:55:46.572Z,54.60
2023-11-28T12:58:13.371Z,54.70
2023-11-28T13:00:40.226Z,55.00
2023-11-28T13:03:07.087Z,54.80
2023-11-28T13:05:34.078Z,55.00
2023-11-28T13:08:00.999Z,54.90
2023-11-28T13:10:27.857Z,54.90
2023-11-28T13:13:07.101Z,55.00
2023-11-28T13:15:38.911Z,55.00
2023-11-28T13:18:05.923Z,55.00
2023-11-28T13:20:32.893Z,55.10
2023-11-28T13:22:59.852Z,55.30
2023-11-28T13:25:26.641Z,55.20
2023-11-28T13:27:54.813Z,54.90
2023-11-28T13:30:21.635Z,55.00
2023-11-28T13:32:48.902Z,54.70
2023-11-28T13:35:16.476Z,54.70
2023-11-28T13:37:43.908Z,55.00
2023-11-28T13:40:11.688Z,54.50
2023-11-28T13:42:38.797Z,54.40
2023-11-28T13:45:07.858Z,54.60
2023-11-28T13:47:34.798Z,55.00
2023-11-28T13:50:01.810Z,54.90
2023-11-28T13:52:28.612Z,54.60
2023-11-28T13:54:55.385Z,54.80
2023-11-28T13:57:22.297Z,54.70
2023-11-28T13:59:49.215Z,54.50
2023-11-28T14:02:17.420Z,54.70
2023-11-28T14:04:46.493Z,54.80
2023-11-28T14:07:13.330Z,54.50
2023-11-28T14:09:40.199Z,54.90
2023-11-28T14:12:07.885Z,55.00
2023-11-28T14:14:46.579Z,54.70
2023-11-28T14:17:22.088Z,54.80
2023-11-28T14:19:48.992Z,55.00
2023-11-28T14:22:15.790Z,55.10
2023-11-28T14:24:45.653Z,55.00
2023-11-28T14:27:12.552Z,55.00
2023-11-28T14:29:39.392Z,55.00
2023-11-28T14:32:06.494Z,55.10
2023-11-28T14:34:34.705Z,55.00
2023-11-28T14:37:01.633Z,55.20
2023-11-28T14:39:28.472Z,55.20
2023-11-28T14:41:55.292Z,55.30
2023-11-28T14:44:22.237Z,55.10
2023-11-28T14:46:49.404Z,55.10
2023-11-28T14:49:16.293Z,55.10
2023-11-28T14:51:45.815Z,55.20
2023-11-28T14:54:12.589Z,55.30
2023-11-28T14:56:39.522Z,55.10
2023-11-28T14:59:07.952Z,55.10
2023-11-28T15:01:35.933Z,55.10
2023-11-28T15:04:02.851Z,55.30
2023-11-28T15:06:29.908Z,55.50
2023-11-28T15:08:58.088Z,55.40
2023-11-28T15:11:33.334Z,55.30
2023-11-28T15:14:00.234Z,55.40
2023-11-28T15:16:36.354Z,55.50
2023-11-28T15:19:03.303Z,55.30
2023-11-28T15:21:30.220Z,55.40
2023-11-28T15:23:58.568Z,55.50
2023-11-28T15:26:28.428Z,55.40
2023-11-28T15:28:55.315Z,55.30
2023-11-28T15:31:22.184Z,55.20
2023-11-28T15:33:49.160Z,55.30
2023-11-28T15:36:16.047Z,55.30
2023-11-28T15:38:43.073Z,55.50
2023-11-28T15:41:11.399Z,55.30
2023-11-28T15:43:38.240Z,55.20
2023-11-28T15:46:05.293Z,55.10
2023-11-28T15:48:32.199Z,55.10
2023-11-28T15:50:58.948Z,55.10
2023-11-28T15:53:25.741Z,55.10
2023-11-28T15:55:52.693Z,55.00
2023-11-28T15:58:20.896Z,54.90
2023-11-28T16:00:47.825Z,54.90
2023-11-28T16:03:15.169Z,54.90
2023-11-28T16:05:42.276Z,54.90
2023-11-28T16:08:09.347Z,54.90
2023-11-28T16:10:36.273Z,54.90
2023-11-28T16:13:03.156Z,54.70
2023-11-28T16:15:31.301Z,54.70
2023-11-28T16:17:58.241Z,54.60
2023-11-28T16:20:25.088Z,54.70
2023-11-28T16:22:52.085Z,54.70
2023-11-28T16:25:19.059Z,54.70
2023-11-28T16:27:45.874Z,54.70
2023-11-28T16:30:13.238Z,54.70
2023-11-28T16:32:41.533Z,54.60
2023-11-28T16:35:09.056Z,54.70
2023-11-28T16:37:35.981Z,54.60
2023-11-28T16:40:03.541Z,55.30
2023-11-28T16:42:30.374Z,54.70
2023-11-28T16:44:57.198Z,54.70
2023-11-28T16:47:24.006Z,54.70
2023-11-28T16:49:52.136Z,54.70
2023-11-28T16:52:19.042Z,54.60
2023-11-28T16:54:45.876Z,54.60
2023-11-28T16:57:12.635Z,54.60
2023-11-28T16:59:39.526Z,54.60
2023-11-28T17:02:06.459Z,54.60
2023-11-28T17:04:33.821Z,54.70
2023-11-28T17:07:02.053Z,54.80
2023-11-28T17:09:28.814Z,54.70
2023-11-28T17:11:55.613Z,54.80
2023-11-28T17:14:22.421Z,54.90
2023-11-28T17:16:49.272Z,54.90
2023-11-28T17:19:16.252Z,54.90
2023-11-28T17:21:43.004Z,55.00
2023-11-28T17:24:11.096Z,55.00
2023-11-28T17:26:38.138Z,55.00
2023-11-28T17:29:04.995Z,55.00
2023-11-28T17:31:31.923Z,55.00
2023-11-28T17:33:58.701Z,55.10
2023-11-28T17:36:25.590Z,55.10
2023-11-28T17:38:52.430Z,55.30
2023-11-28T17:41:20.701Z,55.10
2023-11-28T17:43:47.721Z,55.10
2023-11-28T17:46:15.169Z,55.20
2023-11-28T17:48:42.130Z,55.10
2023-11-28T17:51:08.938Z,55.00
2023-11-28T17:53:35.748Z,55.00
2023-11-28T17:56:07.673Z,55.00
2023-11-28T17:58:35.897Z,55.00
2023-11-28T18:01:02.694Z,55.00
2023-11-28T18:03:29.701Z,55.00
2023-11-28T18:05:56.583Z,55.00
2023-11-28T18:08:23.452Z,55.20
2023-11-28T18:10:50.513Z,55.00
2023-11-28T18:13:17.371Z,54.90
2023-11-28T18:15:45.509Z,55.10
2023-11-28T18:18:12.437Z,55.00
2023-11-28T18:20:39.614Z,55.00
2023-11-28T18:23:06.567Z,55.10
2023-11-28T18:25:33.387Z,55.10
2023-11-28T18:28:00.230Z,54.90
2023-11-28T18:30:27.002Z,54.90
2023-11-28T18:32:55.258Z,54.90
2023-11-28T18:35:22.321Z,54.90
2023-11-28T18:37:49.097Z,54.90
2023-11-28T18:40:15.982Z,54.80
2023-11-28T18:42:42.823Z,54.90
2023-11-28T18:45:09.868Z,55.00
2023-11-28T18:47:36.875Z,54.90
2023-11-28T18:50:06.211Z,54.90
2023-11-28T18:52:33.147Z,54.80
2023-11-28T18:54:59.897Z,54.90
2023-11-28T18:57:26.695Z,54.80
2023-11-28T18:59:53.590Z,54.80
2023-11-28T19:02:20.584Z,54.90
2023-11-28T19:04:47.441Z,54.90
2023-11-28T19:07:15.671Z,54.90
2023-11-28T19:09:42.465Z,54.90
2023-11-28T19:12:09.528Z,54.90
2023-11-28T19:14:37.494Z,54.90
2023-11-28T19:17:04.658Z,54.90
2023-11-28T19:19:31.459Z,54.90
2023-11-28T19:21:58.279Z,54.90
2023-11-28T19:24:26.399Z,55.00
2023-11-28T19:26:53.201Z,55.00
2023-11-28T19:29:20.064Z,54.90
2023-11-28T19:31:49.239Z,54.90
2023-11-28T19:34:16.410Z,55.00
2023-11-28T19:36:43.193Z,55.00
2023-11-28T19:39:10.008Z,55.10
2023-11-28T19:41:38.381Z,55.00
2023-11-28T19:44:05.505Z,55.10
2023-11-28T19:46:32.390Z,55.00
2023-11-28T19:48:59.377Z,55.10
2023-11-28T19:51:26.227Z,55.10
2023-11-28T19:53:53.015Z,55.10
2023-11-28T19:56:20.060Z,55.10
2023-11-28T19:58:48.229Z,55.10
2023-11-28T20:01:15.278Z,55.20
2023-11-28T20:03:43.017Z,55.10
2023-11-28T20:06:09.978Z,55.20
2023-11-28T20:08:37.288Z,55.70
2023-11-28T20:11:04.230Z,55.10
2023-11-28T20:13:31.049Z,55.10
2023-11-28T20:16:02.522Z,55.10
2023-11-28T20:18:29.986Z,55.20
2023-11-28T20:20:56.867Z,55.10
2023-11-28T20:23:23.780Z,55.00
2023-11-28T20:25:50.639Z,55.00
2023-11-28T20:28:17.922Z,55.10
2023-11-28T20:30:44.742Z,55.10
2023-11-28T20:33:13.103Z,55.10
2023-11-28T20:35:40.052Z,55.00
2023-11-28T20:38:07.000Z,55.00
2023-11-28T20:40:33.904Z,55.00
2023-11-28T20:43:01.075Z,55.00
2023-11-28T20:45:27.900Z,55.10
2023-11-28T20:47:54.810Z,55.00
2023-11-28T20:50:23.142Z,54.90
2023-11-28T20:52:50.059Z,54.90
2023-11-28T20:55:16.873Z,54.90
2023-11-28T20:57:43.761Z,54.90
2023-11-28T21:00:12.382Z,54.90
2023-11-28T21:02:39.587Z,54.90
2023-11-28T21:05:06.897Z,55.00
2023-11-28T21:07:35.452Z,54.90
2023-11-28T21:10:02.510Z,54.90
2023-11-28T21:12:29.252Z,54.90
2023-11-28T21:14:56.067Z,54.80
2023-11-28T21:17:22.971Z,54.80
2023-11-28T21:19:49.824Z,54.80
2023-11-28T21:22:16.623Z,54.80
2023-11-28T21:24:44.870Z,54.70
2023-11-28T21:27:11.712Z,54.70
2023-11-28T21:29:38.489Z,54.80
2023-11-28T21:32:06.264Z,54.70
2023-11-28T21:34:34.304Z,54.70
2023-11-28T21:37:01.195Z,54.60
2023-11-28T21:39:27.971Z,54.60
2023-11-28T21:41:56.147Z,54.60
2023-11-28T21:44:23.095Z,54.50
2023-11-28T21:46:50.133Z,54.60
2023-11-28T21:49:17.172Z,54.50
2023-11-28T21:51:44.949Z,54.60
2023-11-28T21:54:11.832Z,54.50
2023-11-28T21:56:38.641Z,54.50
2023-11-28T21:59:06.932Z,54.50
2023-11-28T22:01:33.796Z,54.50
2023-11-28T22:04:00.730Z,54.80
2023-11-28T22:06:27.611Z,54.50
2023-11-28T22:09:00.056Z,54.50
2023-11-28T22:11:29.855Z,54.50
2023-11-28T22:13:56.863Z,54.60
2023-11-28T22:16:25.077Z,54.50
2023-11-28T22:18:51.895Z,54.50
2023-11-28T22:21:22.812Z,54.60
2023-11-28T22:23:51.236Z,54.60
2023-11-28T22:26:18.252Z,54.50
2023-11-28T22:28:45.039Z,54.60
2023-11-28T22:31:11.842Z,54.50
2023-11-28T22:33:40.134Z,54.60
2023-11-28T22:36:07.272Z,54.60
2023-11-28T22:38:34.191Z,54.60
2023-11-28T22:41:01.099Z,54.60
2023-11-28T22:43:28.183Z,54.60
2023-11-28T22:45:55.123Z,54.60
2023-11-28T22:48:22.140Z,54.60
2023-11-28T22:50:50.390Z,54.60
2023-11-28T22:53:17.236Z,54.60
2023-11-28T22:55:44.121Z,54.70
2023-11-28T22:58:10.942Z,54.70
2023-11-28T23:00:37.893Z,54.60
2023-11-28T23:03:05.081Z,54.60
2023-11-28T23:05:32.236Z,54.60
2023-11-28T23:08:00.585Z,54.50
2023-11-28T23:10:27.698Z,54.60
2023-11-28T23:12:54.953Z,54.60
2023-11-28T23:15:22.355Z,54.50
2023-11-28T23:17:49.522Z,54.50
2023-11-28T23:20:16.869Z,54.50
2023-11-28T23:22:52.205Z,54.50
2023-11-28T23:25:24.990Z,54.50
2023-11-28T23:27:52.586Z,54.40
2023-11-28T23:30:19.785Z,54.40
2023-11-28T23:32:47.000Z,54.30
2023-11-28T23:35:14.510Z,54.30
2023-11-28T23:37:41.345Z,54.40
2023-11-28T23:40:09.639Z,54.40
2023-11-28T23:42:43.926Z,54.40
2023-11-28T23:45:16.686Z,54.30
2023-11-28T23:47:43.484Z,54.20
2023-11-28T23:50:10.796Z,54.10
2023-11-28T23:52:37.743Z,54.20
2023-11-28T23:55:05.026Z,54.30
2023-11-28T23:57:31.846Z,54.10
